Time;durP1;ratioP1;P1;durP2;ratioP2;P2;SDS_P1;SDS_P2;PMS_P1;PMS_P2;Temp;Humidity;BMP_temperature;BMP_pressure;BME280_temperature;BME280_humidity;BME280_pressure;Samples;Min_cycle;Max_cycle;Signal;HPM_P1;HPM_P2
2021/03/22 00:01:51;;;;;;;12.50;4.20;;;5.50;99.90;;;;;;4999776;28;20440;-87
2021/03/22 00:04:24;;;;;;;16.17;4.33;;;5.50;99.90;;;;;;5000011;28;20485;-86
2021/03/22 00:06:55;;;;;;;16.10;4.60;;;5.50;99.90;;;;;;4999560;28;20972;-86
2021/03/22 00:09:31;;;;;;;13.47;4.07;;;5.50;99.90;;;;;;4999905;28;20496;-86
2021/03/22 00:12:04;;;;;;;21.17;5.00;;;5.50;99.90;;;;;;4999973;28;20445;-86
2021/03/22 00:14:42;;;;;;;15.20;4.57;;;5.50;99.90;;;;;;4999008;28;20445;-86
2021/03/22 00:17:10;;;;;;;16.40;4.63;;;5.50;99.90;;;;;;4999512;28;20468;-87
2021/03/22 00:19:41;;;;;;;17.70;6.40;;;5.50;99.90;;;;;;4999571;28;20480;-86
2021/03/22 00:22:39;;;;;;;14.07;4.53;;;5.50;99.90;;;;;;4999374;28;20444;-86
2021/03/22 00:25:18;;;;;;;21.00;5.53;;;5.50;99.90;;;;;;5000107;28;20451;-86
2021/03/22 00:27:55;;;;;;;16.87;5.00;;;5.50;99.90;;;;;;5003714;28;20445;-87
2021/03/22 00:30:30;;;;;;;16.83;5.90;;;5.50;99.90;;;;;;5003318;28;20440;-86
2021/03/22 00:33:00;;;;;;;11.57;4.47;;;5.50;99.90;;;;;;5003885;28;20448;-86
2021/03/22 00:35:33;;;;;;;13.70;5.00;;;5.50;99.90;;;;;;5004183;28;20440;-86
2021/03/22 00:38:08;;;;;;;16.43;5.50;;;5.50;99.90;;;;;;5003010;28;20567;-86
2021/03/22 00:41:12;;;;;;;8.93;4.13;;;5.50;99.90;;;;;;5020011;28;20441;-86
2021/03/22 00:43:51;;;;;;;13.50;5.20;;;5.50;99.90;;;;;;5003195;28;20467;-86
2021/03/22 00:46:26;;;;;;;11.60;4.73;;;5.50;99.90;;;;;;5003366;28;20524;-86
2021/03/22 00:49:10;;;;;;;18.60;5.70;;;5.50;99.90;;;;;;5004325;28;20480;-86
2021/03/22 00:51:41;;;;;;;15.57;4.10;;;5.50;99.90;;;;;;5002935;28;20448;-86
2021/03/22 00:54:10;;;;;;;13.90;4.90;;;5.50;99.90;;;;;;5003166;28;20448;-87
2021/03/22 00:56:42;;;;;;;15.87;4.53;;;5.50;99.90;;;;;;5003589;28;20440;-86
2021/03/22 00:59:22;;;;;;;13.47;4.93;;;5.50;99.90;;;;;;5002700;28;20504;-86
2021/03/22 01:02:00;;;;;;;14.17;4.70;;;5.50;99.90;;;;;;5002376;28;20440;-86
2021/03/22 01:04:35;;;;;;;15.80;5.40;;;5.50;99.90;;;;;;5003514;28;20535;-86
2021/03/22 01:07:17;;;;;;;13.10;5.20;;;5.50;99.90;;;;;;5003296;28;20452;-86
2021/03/22 01:10:00;;;;;;;19.03;5.10;;;5.50;99.90;;;;;;5002239;28;20991;-86
2021/03/22 01:12:35;;;;;;;14.30;4.40;;;5.40;99.90;;;;;;5007353;28;20420;-86
2021/03/22 01:15:08;;;;;;;20.10;6.80;;;5.40;99.90;;;;;;5003135;28;20450;-86
2021/03/22 01:17:40;;;;;;;14.37;5.70;;;5.40;99.90;;;;;;5003952;28;20445;-86
2021/03/22 01:20:17;;;;;;;17.33;5.60;;;5.40;99.90;;;;;;5002983;28;20512;-86
2021/03/22 01:22:47;;;;;;;13.67;5.07;;;5.40;99.90;;;;;;5002540;28;20452;-86
2021/03/22 01:25:21;;;;;;;15.03;5.30;;;5.40;99.90;;;;;;5002148;28;20453;-87
2021/03/22 01:27:53;;;;;;;15.70;6.32;;;5.40;99.90;;;;;;5002227;28;20449;-86
2021/03/22 01:30:58;;;;;;;21.87;6.20;;;5.40;99.90;;;;;;5002413;28;20537;-86
2021/03/22 01:33:45;;;;;;;17.63;5.73;;;5.50;99.90;;;;;;5002181;28;20467;-86
2021/03/22 01:36:24;;;;;;;17.00;5.23;;;5.40;99.90;;;;;;5003282;28;20440;-86
2021/03/22 01:39:20;;;;;;;18.02;6.47;;;5.40;99.90;;;;;;5002100;28;20498;-86
2021/03/22 01:42:19;;;;;;;18.50;5.07;;;5.60;99.90;;;;;;5002451;28;20229;-86
2021/03/22 01:44:54;;;;;;;15.13;5.80;;;5.50;99.90;;;;;;5002033;28;20855;-88
2021/03/22 01:47:38;;;;;;;17.43;6.47;;;5.40;99.90;;;;;;5003091;28;20468;-88
2021/03/22 01:50:19;;;;;;;15.20;6.07;;;5.40;99.90;;;;;;5002488;28;20448;-88
2021/03/22 01:52:50;;;;;;;15.07;5.27;;;5.40;99.90;;;;;;5002048;28;20542;-88
2021/03/22 01:55:28;;;;;;;17.80;6.60;;;5.30;99.90;;;;;;5001915;28;20540;-88
2021/03/22 01:57:57;;;;;;;17.07;5.87;;;5.30;99.90;;;;;;5002092;28;20479;-88
2021/03/22 02:00:33;;;;;;;16.30;6.03;;;5.30;99.90;;;;;;5002392;28;20461;-88
2021/03/22 02:03:08;;;;;;;20.23;7.63;;;5.30;99.90;;;;;;5002446;28;20864;-88
2021/03/22 02:05:42;;;;;;;15.90;5.70;;;5.20;99.90;;;;;;5002231;28;20480;-88
2021/03/22 02:08:16;;;;;;;14.47;5.47;;;5.20;99.90;;;;;;5002188;28;20883;-88
2021/03/22 02:14:09;;;;;;;15.33;4.97;;;5.10;99.90;;;;;;5016741;28;20458;-88
2021/03/22 02:16:57;;;;;;;14.30;6.40;;;5.10;99.90;;;;;;5001589;28;20950;-88
2021/03/22 02:20:03;;;;;;;24.33;7.73;;;5.10;99.90;;;;;;5001380;28;20556;-88
2021/03/22 02:23:00;;;;;;;20.80;6.60;;;5.10;99.90;;;;;;4987239;28;20457;-88
2021/03/22 02:25:34;;;;;;;22.10;5.80;;;5.00;99.90;;;;;;5001230;28;20444;-88
2021/03/22 02:28:39;;;;;;;26.33;6.97;;;5.00;99.90;;;;;;5001507;28;20985;-88
2021/03/22 02:31:31;;;;;;;10.63;5.43;;;5.00;99.90;;;;;;5001921;28;20441;-88
2021/03/22 02:34:15;;;;;;;13.93;5.73;;;5.00;99.90;;;;;;5001769;28;20873;-88
2021/03/22 02:36:53;;;;;;;19.50;6.30;;;5.00;99.90;;;;;;5001731;28;20445;-88
2021/03/22 02:39:20;;;;;;;17.50;6.50;;;5.00;99.90;;;;;;5001836;28;20954;-87
2021/03/22 02:42:19;;;;;;;17.33;6.17;;;5.00;99.90;;;;;;5002837;28;20420;-88
2021/03/22 02:44:52;;;;;;;20.77;5.67;;;5.10;99.90;;;;;;5000958;28;20456;-88
2021/03/22 02:47:35;;;;;;;18.50;7.30;;;5.00;99.90;;;;;;5001018;28;20448;-88
2021/03/22 02:50:18;;;;;;;15.17;5.80;;;5.00;99.90;;;;;;5002065;28;20496;-88
2021/03/22 02:53:11;;;;;;;17.73;7.67;;;5.00;99.90;;;;;;5000655;28;20437;-87
2021/03/22 02:55:51;;;;;;;14.97;5.30;;;5.00;99.90;;;;;;5000297;28;20512;-88
2021/03/22 02:58:28;;;;;;;16.67;7.03;;;5.00;99.90;;;;;;5000186;28;20495;-88
2021/03/22 03:01:07;;;;;;;16.13;5.63;;;5.00;99.90;;;;;;5000431;28;20463;-87
2021/03/22 03:03:47;;;;;;;15.27;6.37;;;5.10;99.90;;;;;;5000726;28;20449;-88
2021/03/22 03:06:42;;;;;;;16.40;7.23;;;5.10;99.90;;;;;;5001029;28;20874;-87
2021/03/22 03:09:23;;;;;;;16.73;7.00;;;5.10;99.90;;;;;;5002121;28;20814;-87
2021/03/22 03:11:54;;;;;;;15.13;7.10;;;5.40;99.90;;;;;;5000737;28;20828;-88
2021/03/22 03:14:28;;;;;;;14.33;6.80;;;5.10;99.90;;;;;;5000787;28;20516;-88
2021/03/22 03:17:04;;;;;;;16.70;7.30;;;5.10;99.90;;;;;;5000604;28;20452;-88
2021/03/22 03:22:39;;;;;;;17.60;7.40;;;5.20;99.90;;;;;;5000224;28;20436;-88
2021/03/22 03:25:09;;;;;;;18.23;7.70;;;5.20;99.90;;;;;;5000656;28;20476;-88
2021/03/22 03:27:37;;;;;;;22.53;8.10;;;5.20;99.90;;;;;;5000410;28;20483;-88
2021/03/22 03:30:14;;;;;;;16.80;7.93;;;5.20;99.90;;;;;;5000543;28;20448;-88
2021/03/22 03:32:58;;;;;;;17.40;6.70;;;5.20;99.90;;;;;;5000751;28;20453;-88
2021/03/22 03:35:46;;;;;;;15.80;6.90;;;5.20;99.90;;;;;;5000456;28;20448;-88
2021/03/22 03:38:25;;;;;;;16.43;7.03;;;5.30;99.90;;;;;;5001115;28;20837;-88
2021/03/22 03:41:22;;;;;;;23.33;8.20;;;5.20;99.90;;;;;;5001049;28;20561;-88
2021/03/22 03:43:56;;;;;;;22.23;8.60;;;5.20;99.90;;;;;;4974943;28;20827;-88
2021/03/22 03:46:28;;;;;;;14.10;7.00;;;5.30;99.90;;;;;;5000371;28;20441;-88
2021/03/22 03:49:17;;;;;;;20.40;6.90;;;5.20;99.90;;;;;;5000230;28;20842;-88
2021/03/22 03:54:46;;;;;;;22.17;8.50;;;5.30;99.90;;;;;;4999120;28;20822;-88
2021/03/22 03:57:23;;;;;;;17.52;7.32;;;5.30;99.90;;;;;;4998323;28;20491;-88
2021/03/22 04:00:04;;;;;;;17.17;6.10;;;5.40;99.90;;;;;;4999013;28;20232;-88
2021/03/22 04:02:43;;;;;;;22.10;7.60;;;5.40;99.90;;;;;;5002315;28;20417;-88
2021/03/22 04:05:12;;;;;;;16.40;6.18;;;5.40;99.90;;;;;;4999710;28;20476;-88
2021/03/22 04:07:46;;;;;;;16.33;7.00;;;5.40;99.90;;;;;;5001793;28;20265;-88
2021/03/22 04:10:33;;;;;;;19.67;6.50;;;5.40;99.90;;;;;;5000050;28;20480;-88
2021/03/22 04:13:07;;;;;;;17.53;6.90;;;5.40;99.90;;;;;;4999995;28;20444;-88
2021/03/22 04:15:43;;;;;;;17.67;6.60;;;5.40;99.90;;;;;;4997110;28;20945;-87
2021/03/22 04:18:34;;;;;;;19.53;6.70;;;5.30;99.90;;;;;;4999541;28;20483;-88
2021/03/22 04:21:52;;;;;;;15.90;6.17;;;5.40;99.90;;;;;;5000314;28;20779;-88
2021/03/22 04:24:42;;;;;;;;;;;;;;;;;;;;;
2021/03/22 04:27:39;;;;;;;;;;;;;;;;;;;;;
2021/03/22 04:30:20;;;;;;;16.83;6.30;;;5.40;99.90;;;;;;4992935;28;20552;-88
2021/03/22 04:32:52;;;;;;;16.70;5.87;;;5.40;99.90;;;;;;5000384;28;20452;-88
2021/03/22 04:35:25;;;;;;;13.00;6.00;;;5.40;99.90;;;;;;4999784;28;20449;-88
2021/03/22 04:37:55;;;;;;;15.40;7.27;;;5.40;99.90;;;;;;5002033;28;20468;-88
2021/03/22 04:40:41;;;;;;;13.30;6.90;;;5.40;99.90;;;;;;5000680;28;20562;-88
2021/03/22 04:43:22;;;;;;;14.83;6.60;;;5.40;99.90;;;;;;5001529;28;20456;-88
2021/03/22 04:45:58;;;;;;;13.60;6.30;;;5.40;99.90;;;;;;5000282;28;20444;-88
2021/03/22 04:48:29;;;;;;;19.93;6.53;;;5.50;99.90;;;;;;5000671;28;21113;-88
2021/03/22 04:51:04;;;;;;;15.40;7.27;;;5.50;99.90;;;;;;4999235;28;20972;-88
2021/03/22 04:53:41;;;;;;;18.40;6.40;;;5.50;99.90;;;;;;4999581;28;20448;-88
2021/03/22 04:56:11;;;;;;;15.77;5.40;;;5.50;99.90;;;;;;5000551;28;20898;-88
2021/03/22 04:59:00;;;;;;;14.03;4.90;;;5.80;99.90;;;;;;4999181;28;20480;-88
2021/03/22 05:01:57;;;;;;;18.57;6.50;;;5.70;99.90;;;;;;5003817;28;20448;-88
2021/03/22 05:04:32;;;;;;;13.87;6.87;;;5.50;99.90;;;;;;4999423;28;20444;-88
2021/03/22 05:07:00;;;;;;;15.57;5.13;;;5.50;99.90;;;;;;4998984;28;20910;-88
2021/03/22 05:09:30;;;;;;;17.00;5.10;;;5.50;99.90;;;;;;4999369;28;20464;-88
2021/03/22 05:12:07;;;;;;;11.33;4.97;;;5.50;99.90;;;;;;4999727;28;20448;-88
2021/03/22 05:14:43;;;;;;;12.97;5.40;;;5.50;99.90;;;;;;5002693;28;20511;-88
2021/03/22 05:17:29;;;;;;;15.13;4.97;;;5.50;99.90;;;;;;5003328;28;20535;-88
2021/03/22 05:19:59;;;;;;;12.03;5.40;;;5.70;99.90;;;;;;5003064;28;20563;-87
2021/03/22 05:22:31;;;;;;;12.37;4.60;;;5.50;99.90;;;;;;5002312;28;20962;-87
2021/03/22 05:25:02;;;;;;;16.57;6.00;;;5.60;99.90;;;;;;5003209;28;20445;-88
2021/03/22 05:27:58;;;;;;;15.83;5.03;;;5.60;99.90;;;;;;5003230;28;20479;-87
2021/03/22 05:30:35;;;;;;;12.50;4.53;;;5.60;99.90;;;;;;5002646;28;20468;-88
2021/03/22 05:33:08;;;;;;;12.97;4.93;;;5.60;99.90;;;;;;5004017;28;20432;-88
2021/03/22 05:35:38;;;;;;;13.73;5.30;;;5.60;99.90;;;;;;5002648;28;20464;-88
2021/03/22 05:38:09;;;;;;;9.17;4.50;;;5.60;99.90;;;;;;5001812;28;20468;-88
2021/03/22 05:41:08;;;;;;;15.57;5.80;;;5.60;99.90;;;;;;5003159;28;20481;-88
2021/03/22 05:43:54;;;;;;;13.30;5.70;;;5.60;99.90;;;;;;4983334;28;20453;-88
2021/03/22 05:50:20;;;;;;;12.50;5.17;;;5.60;99.90;;;;;;4991759;28;20528;-88
2021/03/22 05:53:26;;;;;;;13.47;5.10;;;5.60;99.90;;;;;;5003996;28;20448;-88
2021/03/22 05:56:06;;;;;;;13.00;5.83;;;5.60;99.90;;;;;;5002597;28;20463;-88
2021/03/22 05:59:16;;;;;;;;;;;;;;;;;;;;;
2021/03/22 06:01:56;;;;;;;17.00;6.17;;;5.50;99.90;;;;;;5002545;28;20452;-88
2021/03/22 06:04:57;;;;;;;;;;;;;;;;;;;;;
2021/03/22 06:08:33;;;;;;;;;;;;;;;;;;;;;
2021/03/22 06:11:45;;;;;;;17.80;6.93;;;5.50;99.90;;;;;;4960681;28;20455;-88
2021/03/22 06:22:01;;;;;;;16.03;6.10;;;5.60;99.90;;;;;;4925430;29;20881;-88
2021/03/22 06:25:42;;;;;;;;;;;;;;;;;;;;;
2021/03/22 06:28:49;;;;;;;13.40;5.50;;;5.60;99.90;;;;;;4868870;29;21046;-89
2021/03/22 06:32:06;;;;;;;;;;;;;;;;;;;;;
2021/03/22 07:32:48;;;;;;;6.23;3.20;;;6.10;99.90;;;;;;4756686;29;20458;-88
2021/03/22 07:51:23;;;;;;;4.57;2.93;;;6.30;99.90;;;;;;4853737;29;20847;-88
2021/03/22 08:35:03;;;;;;;5.50;1.40;;;7.10;99.90;;;;;;4829916;29;20459;-88
2021/03/22 09:08:41;;;;;;;3.80;1.07;;;7.40;99.90;;;;;;4916021;29;20495;-89
2021/03/22 09:11:31;;;;;;;1.67;1.00;;;7.40;99.90;;;;;;5052805;28;20442;-89
2021/03/22 09:50:22;;;;;;;2.53;1.00;;;7.80;99.90;;;;;;5016683;28;20468;-90
2021/03/22 10:01:03;;;;;;;;;;;;;;;;;;;;;
2021/03/22 10:24:10;;;;;;;4.63;2.07;;;7.90;99.90;;;;;;4851401;29;20458;-88
2021/03/22 11:39:55;;;;;;;2.90;2.00;;;8.50;99.90;;;;;;4911702;28;20464;-88
2021/03/22 14:01:22;;;;;;;9.77;2.50;;;9.40;99.90;;;;;;4975495;28;20585;-89
2021/03/22 14:12:02;;;;;;;5.03;2.20;;;9.50;99.90;;;;;;4937229;29;20451;-90
2021/03/22 14:18:19;;;;;;;5.23;2.20;;;9.50;99.90;;;;;;4948928;28;20853;-90
2021/03/22 14:20:47;;;;;;;4.30;2.80;;;9.60;99.90;;;;;;5026306;28;20451;-90
2021/03/22 14:23:16;;;;;;;5.93;2.50;;;9.60;99.90;;;;;;5075059;28;20457;-90
2021/03/22 14:25:45;;;;;;;5.70;1.97;;;9.60;99.90;;;;;;5072637;28;20442;-90
2021/03/22 14:28:18;;;;;;;5.27;2.20;;;9.70;99.90;;;;;;5074282;28;20859;-90
2021/03/22 14:54:38;;;;;;;7.33;2.77;;;9.60;99.90;;;;;;4857870;29;20437;-89
2021/03/22 15:53:44;;;;;;;5.18;2.50;;;9.20;99.90;;;;;;4899242;29;20464;-89
2021/03/22 15:56:12;;;;;;;7.00;2.20;;;9.20;99.90;;;;;;4983397;28;20208;-89
2021/03/22 15:58:39;;;;;;;6.20;2.07;;;9.20;99.90;;;;;;5004074;28;20478;-88
2021/03/22 16:01:09;;;;;;;6.97;2.40;;;9.10;99.90;;;;;;5093271;28;20452;-88
2021/03/22 16:03:37;;;;;;;5.60;2.60;;;9.10;99.90;;;;;;5092385;28;20453;-88
2021/03/22 16:06:06;;;;;;;6.47;2.63;;;9.20;99.90;;;;;;5093187;28;20202;-89
2021/03/22 16:08:34;;;;;;;2.37;1.73;;;9.10;99.90;;;;;;5093297;28;20465;-88
2021/03/22 16:11:02;;;;;;;4.87;2.13;;;9.10;99.90;;;;;;5093571;28;20437;-89
2021/03/22 16:13:32;;;;;;;8.73;3.07;;;9.00;99.90;;;;;;5094286;28;20440;-86
2021/03/22 16:16:01;;;;;;;10.60;4.83;;;9.00;99.90;;;;;;5095295;28;20416;-89
2021/03/22 16:18:29;;;;;;;7.00;3.70;;;8.90;99.90;;;;;;5093432;28;20467;-89
2021/03/22 16:20:57;;;;;;;13.67;5.50;;;8.90;99.90;;;;;;5093673;28;20463;-88
2021/03/22 16:23:29;;;;;;;9.63;5.30;;;8.90;99.90;;;;;;5093644;28;20972;-89
2021/03/22 16:25:57;;;;;;;4.23;2.00;;;8.80;99.90;;;;;;5093363;28;20526;-89
2021/03/22 16:28:26;;;;;;;8.03;3.13;;;8.80;99.90;;;;;;5093337;28;20517;-89
2021/03/22 16:30:55;;;;;;;8.43;2.70;;;8.70;99.90;;;;;;5093070;28;20889;-89
2021/03/22 16:33:25;;;;;;;5.60;2.13;;;8.70;99.90;;;;;;5093123;28;20506;-89
2021/03/22 16:35:55;;;;;;;7.47;2.60;;;8.70;99.90;;;;;;5093541;28;20504;-89
2021/03/22 16:38:25;;;;;;;5.97;1.87;;;8.70;99.90;;;;;;5083019;28;20457;-89
2021/03/22 16:40:55;;;;;;;6.90;2.20;;;8.60;99.90;;;;;;5079422;28;20456;-89
2021/03/22 16:43:25;;;;;;;8.03;3.07;;;8.60;99.90;;;;;;5079236;28;20495;-88
2021/03/22 16:45:55;;;;;;;4.83;2.10;;;8.60;99.90;;;;;;5078782;28;20457;-89
2021/03/22 16:48:24;;;;;;;5.37;2.57;;;8.60;99.90;;;;;;5079299;28;20476;-89
2021/03/22 16:50:54;;;;;;;10.30;3.30;;;8.50;99.90;;;;;;5079033;28;20512;-88
2021/03/22 16:53:22;;;;;;;6.43;2.97;;;8.50;99.90;;;;;;5078982;28;20498;-88
2021/03/22 16:55:49;;;;;;;5.53;2.83;;;8.40;99.90;;;;;;5078772;28;20497;-88
2021/03/22 16:58:20;;;;;;;3.50;2.60;;;8.40;99.90;;;;;;5078325;28;20468;-88
2021/03/22 17:00:48;;;;;;;5.63;2.20;;;8.40;99.90;;;;;;5078153;28;20453;-88
2021/03/22 17:03:16;;;;;;;4.00;2.80;;;8.40;99.90;;;;;;5078300;28;20477;-88
2021/03/22 17:05:45;;;;;;;5.00;2.37;;;8.40;99.90;;;;;;5078467;28;20473;-88
2021/03/22 17:08:14;;;;;;;6.30;2.13;;;8.40;99.90;;;;;;5077827;28;20468;-88
2021/03/22 17:10:44;;;;;;;7.83;3.00;;;8.30;99.90;;;;;;5085335;28;20522;-88
2021/03/22 17:13:14;;;;;;;3.00;2.17;;;8.30;99.90;;;;;;5078372;28;20433;-89
2021/03/22 17:15:42;;;;;;;4.27;1.90;;;8.30;99.90;;;;;;5078891;28;20443;-88
2021/03/22 17:18:11;;;;;;;4.40;2.37;;;8.30;99.90;;;;;;5078319;28;20561;-89
2021/03/22 17:20:40;;;;;;;7.53;2.20;;;8.20;99.90;;;;;;5077924;28;21073;-88
2021/03/22 17:23:08;;;;;;;3.93;1.60;;;8.20;99.90;;;;;;5077601;28;20970;-88
2021/03/22 17:25:37;;;;;;;5.20;2.00;;;8.20;99.90;;;;;;5077775;28;20449;-88
2021/03/22 17:28:06;;;;;;;5.33;2.10;;;8.20;99.90;;;;;;5077759;28;20527;-88
2021/03/22 17:30:35;;;;;;;5.83;2.27;;;8.20;99.90;;;;;;5077722;28;20514;-88
2021/03/22 17:33:03;;;;;;;5.70;2.40;;;8.10;99.90;;;;;;5077541;28;20544;-87
2021/03/22 17:35:32;;;;;;;5.13;3.07;;;8.10;99.90;;;;;;5077268;28;20445;-87
2021/03/22 17:38:00;;;;;;;4.40;2.80;;;8.10;99.90;;;;;;5076587;28;20840;-87
2021/03/22 17:40:30;;;;;;;5.50;3.20;;;8.10;99.90;;;;;;5078309;28;20445;-87
2021/03/22 17:42:58;;;;;;;4.00;2.20;;;8.10;99.90;;;;;;5076945;28;20450;-88
2021/03/22 17:45:28;;;;;;;2.93;2.03;;;8.10;99.90;;;;;;5077250;28;20222;-88
2021/03/22 17:47:56;;;;;;;4.20;2.70;;;8.10;99.90;;;;;;5077397;28;20461;-88
2021/03/22 17:50:25;;;;;;;6.63;2.53;;;8.10;99.90;;;;;;5076504;28;20449;-88
2021/03/22 17:52:54;;;;;;;6.80;2.20;;;8.00;99.90;;;;;;5077947;28;20449;-88
2021/03/22 17:55:23;;;;;;;4.77;2.37;;;8.00;99.90;;;;;;5077623;28;20449;-88
2021/03/22 17:57:50;;;;;;;4.07;1.77;;;8.00;99.90;;;;;;5077444;28;20437;-88
2021/03/22 18:00:21;;;;;;;4.40;2.23;;;8.00;99.90;;;;;;5076690;28;20445;-88
2021/03/22 18:02:50;;;;;;;3.97;2.40;;;7.90;99.90;;;;;;5076722;28;20445;-88
2021/03/22 18:05:20;;;;;;;6.27;3.50;;;7.90;99.90;;;;;;5077304;28;20798;-88
2021/03/22 18:07:48;;;;;;;3.43;2.00;;;7.90;99.90;;;;;;5076847;28;20472;-88
2021/03/22 18:10:17;;;;;;;9.33;4.47;;;7.80;99.90;;;;;;5077099;28;20449;-88
2021/03/22 18:12:45;;;;;;;4.20;2.90;;;7.80;99.90;;;;;;5076717;28;20502;-88
2021/03/22 18:15:14;;;;;;;8.70;6.30;;;7.80;99.90;;;;;;5076664;28;20441;-88
2021/03/22 18:17:42;;;;;;;5.43;2.20;;;7.80;99.90;;;;;;5076190;28;20457;-88
2021/03/22 18:20:11;;;;;;;6.73;2.20;;;7.80;99.90;;;;;;5076348;28;20452;-88
2021/03/22 18:22:38;;;;;;;4.90;1.93;;;7.80;99.90;;;;;;5078079;28;20471;-88
2021/03/22 18:25:07;;;;;;;6.10;2.87;;;7.80;99.90;;;;;;5076267;28;20526;-87
2021/03/22 18:27:35;;;;;;;3.67;1.73;;;7.80;99.90;;;;;;5077043;28;20942;-88
2021/03/22 18:30:04;;;;;;;4.73;2.20;;;7.80;99.90;;;;;;5075997;28;20540;-88
2021/03/22 18:32:32;;;;;;;4.10;2.30;;;7.80;99.90;;;;;;5076278;28;20441;-87
2021/03/22 18:34:59;;;;;;;5.43;3.30;;;7.80;99.90;;;;;;5076343;28;20453;-87
2021/03/22 18:37:27;;;;;;;6.00;2.90;;;7.80;99.90;;;;;;5076312;28;20449;-87
2021/03/22 18:39:54;;;;;;;5.37;3.03;;;7.70;99.90;;;;;;5076474;28;20989;-87
2021/03/22 18:42:21;;;;;;;4.83;2.80;;;7.70;99.90;;;;;;5076278;28;20457;-87
2021/03/22 18:44:50;;;;;;;5.50;2.10;;;7.80;99.90;;;;;;5077641;28;20441;-87
2021/03/22 18:47:17;;;;;;;4.10;2.60;;;7.70;99.90;;;;;;5076099;28;21009;-87
2021/03/22 18:49:44;;;;;;;7.27;4.00;;;7.70;99.90;;;;;;5075957;28;20468;-87
2021/03/22 18:52:12;;;;;;;4.10;2.50;;;7.70;99.90;;;;;;5076105;28;20475;-87
2021/03/22 18:54:39;;;;;;;5.00;3.10;;;7.70;99.90;;;;;;5076288;28;20449;-87
2021/03/22 18:57:08;;;;;;;5.07;3.13;;;7.70;99.90;;;;;;5075747;28;20453;-87
2021/03/22 18:59:41;;;;;;;8.30;3.33;;;7.70;99.90;;;;;;5076262;28;20488;-87
2021/03/22 19:02:13;;;;;;;4.70;2.70;;;7.60;99.90;;;;;;5076125;28;20453;-87
2021/03/22 19:04:42;;;;;;;5.33;2.63;;;7.60;99.90;;;;;;5078497;28;20501;-87
2021/03/22 19:07:10;;;;;;;3.57;2.57;;;7.60;99.90;;;;;;5077974;28;20466;-88
2021/03/22 19:09:37;;;;;;;5.47;2.40;;;7.60;99.90;;;;;;5078559;28;20522;-88
2021/03/22 19:12:06;;;;;;;4.60;2.70;;;7.50;99.90;;;;;;5078210;28;20446;-88
2021/03/22 19:14:34;;;;;;;6.30;3.40;;;7.50;99.90;;;;;;5078998;28;20441;-88
2021/03/22 19:17:02;;;;;;;8.57;3.17;;;7.50;99.90;;;;;;5078054;28;20441;-85
2021/03/22 19:19:32;;;;;;;4.83;2.80;;;7.50;99.90;;;;;;5077913;28;20391;-85
2021/03/22 19:21:59;;;;;;;3.70;2.60;;;7.50;99.90;;;;;;5077048;28;20452;-85
2021/03/22 19:24:26;;;;;;;6.47;3.20;;;7.40;99.90;;;;;;5078336;28;20463;-85
2021/03/22 19:26:53;;;;;;;7.20;3.90;;;7.40;99.90;;;;;;5077465;28;20481;-85
2021/03/22 19:29:24;;;;;;;6.15;3.50;;;7.40;99.90;;;;;;5079454;28;20438;-85
2021/03/22 19:31:52;;;;;;;7.80;3.30;;;7.50;99.90;;;;;;5075988;28;20187;-85
2021/03/22 19:34:20;;;;;;;5.70;4.30;;;7.50;99.90;;;;;;5076488;28;20540;-85
2021/03/22 19:36:48;;;;;;;9.43;4.23;;;7.40;99.90;;;;;;5076428;28;20473;-85
2021/03/22 19:39:16;;;;;;;4.97;3.00;;;7.40;99.90;;;;;;5076243;28;20488;-85
2021/03/22 19:41:43;;;;;;;8.53;3.43;;;7.40;99.90;;;;;;5076426;28;20426;-85
2021/03/22 19:44:11;;;;;;;6.07;3.30;;;7.30;99.90;;;;;;5076478;28;20441;-85
2021/03/22 19:46:38;;;;;;;6.30;3.10;;;7.30;99.90;;;;;;5075775;28;20472;-85
2021/03/22 19:49:05;;;;;;;3.70;3.10;;;7.40;99.90;;;;;;5076353;28;20479;-85
2021/03/22 19:51:36;;;;;;;4.70;3.83;;;7.30;99.90;;;;;;5076831;28;20444;-85
2021/03/22 19:54:05;;;;;;;5.40;4.07;;;7.30;99.90;;;;;;5077147;28;20448;-85
2021/03/22 19:56:33;;;;;;;7.10;3.50;;;7.30;99.90;;;;;;5077719;28;20455;-85
2021/03/22 19:59:01;;;;;;;7.43;3.33;;;7.30;99.90;;;;;;5076385;28;20476;-86
2021/03/22 20:01:28;;;;;;;3.80;2.90;;;7.30;99.90;;;;;;5076678;28;20471;-85
2021/03/22 20:03:55;;;;;;;6.57;3.80;;;7.20;99.90;;;;;;5076929;28;20476;-85
2021/03/22 20:06:23;;;;;;;4.77;3.17;;;7.20;99.90;;;;;;5078645;28;20480;-85
2021/03/22 20:08:51;;;;;;;7.00;4.60;;;7.20;99.90;;;;;;5082684;28;20464;-85
2021/03/22 20:11:19;;;;;;;7.00;4.00;;;7.20;99.90;;;;;;5078549;28;20448;-85
2021/03/22 20:13:49;;;;;;;9.13;4.33;;;7.20;99.90;;;;;;5084582;28;20445;-85
2021/03/22 20:16:22;;;;;;;6.40;3.60;;;7.20;99.90;;;;;;5085000;28;20433;-85
2021/03/22 20:18:51;;;;;;;6.23;3.77;;;7.10;99.90;;;;;;5080215;28;20465;-85
2021/03/22 20:21:21;;;;;;;6.93;3.63;;;7.20;99.90;;;;;;5080030;28;20453;-85
2021/03/22 20:23:50;;;;;;;6.43;3.80;;;7.20;99.90;;;;;;5079980;28;20433;-86
2021/03/22 20:26:20;;;;;;;8.13;4.50;;;7.10;99.90;;;;;;5080412;28;20499;-85
2021/03/22 20:28:50;;;;;;;7.40;3.73;;;7.10;99.90;;;;;;5080340;28;20488;-85
2021/03/22 20:31:39;;;;;;;6.80;4.40;;;7.10;99.90;;;;;;5080253;28;20453;-85
2021/03/22 20:34:07;;;;;;;4.70;3.70;;;7.10;99.90;;;;;;5079618;28;20441;-85
2021/03/22 20:36:34;;;;;;;7.67;4.60;;;7.10;99.90;;;;;;5079414;28;20441;-86
2021/03/22 20:39:02;;;;;;;6.37;5.07;;;7.10;99.90;;;;;;5079742;28;20468;-86
2021/03/22 20:41:31;;;;;;;7.23;5.40;;;7.00;99.90;;;;;;5079939;28;20459;-88
2021/03/22 20:43:59;;;;;;;5.03;3.47;;;7.10;99.90;;;;;;5079859;28;20448;-87
2021/03/22 20:46:27;;;;;;;6.10;3.40;;;7.00;99.90;;;;;;5080251;28;20472;-86
2021/03/22 20:49:07;;;;;;;4.97;3.30;;;7.10;99.90;;;;;;5078784;28;20527;-87
2021/03/22 20:51:35;;;;;;;4.53;3.07;;;7.00;99.90;;;;;;5078930;28;20446;-88
2021/03/22 20:54:03;;;;;;;4.30;3.10;;;7.00;99.90;;;;;;5083869;28;20457;-89
2021/03/22 20:56:31;;;;;;;4.63;3.40;;;7.00;99.90;;;;;;5083907;28;20487;-89
2021/03/22 20:58:59;;;;;;;3.97;2.90;;;7.00;99.90;;;;;;5083804;28;20473;-89
2021/03/22 21:01:26;;;;;;;7.73;3.00;;;7.00;99.90;;;;;;5083580;28;20977;-89
2021/03/22 21:03:56;;;;;;;3.97;2.80;;;7.00;99.90;;;;;;5081711;28;20556;-88
2021/03/22 21:06:24;;;;;;;4.67;2.70;;;6.90;99.90;;;;;;5077623;28;20471;-87
2021/03/22 21:08:52;;;;;;;4.00;2.90;;;6.90;99.90;;;;;;5078878;28;20906;-87
2021/03/22 21:11:19;;;;;;;5.50;2.80;;;6.90;99.90;;;;;;5079918;28;20441;-87
2021/03/22 21:13:49;;;;;;;4.20;2.60;;;6.90;99.90;;;;;;5078257;28;20624;-87
2021/03/22 21:16:17;;;;;;;5.43;2.83;;;6.90;99.90;;;;;;5078593;28;20453;-85
2021/03/22 21:18:45;;;;;;;5.33;3.40;;;6.90;99.90;;;;;;5079122;28;20473;-85
2021/03/22 21:21:12;;;;;;;5.80;3.10;;;6.90;99.90;;;;;;5078472;28;20441;-86
2021/03/22 21:23:40;;;;;;;4.45;3.10;;;6.80;99.90;;;;;;5078180;28;20446;-85
2021/03/22 21:26:08;;;;;;;5.60;2.97;;;6.90;99.90;;;;;;5078571;28;20229;-85
2021/03/22 21:28:35;;;;;;;4.80;3.17;;;6.90;99.90;;;;;;5077776;28;20478;-85
2021/03/22 21:31:06;;;;;;;5.20;2.80;;;6.90;99.90;;;;;;5078734;28;20487;-85
2021/03/22 21:33:34;;;;;;;5.82;3.28;;;6.80;99.90;;;;;;5077552;28;20456;-85
2021/03/22 21:36:03;;;;;;;5.30;3.00;;;6.90;99.90;;;;;;5078756;28;20244;-85
2021/03/22 21:38:31;;;;;;;4.17;3.00;;;7.00;99.90;;;;;;5078911;28;21035;-86
2021/03/22 21:41:11;;;;;;;3.67;2.53;;;6.90;99.90;;;;;;5078593;28;20441;-85
2021/03/22 21:44:08;;;;;;;4.30;2.77;;;6.90;99.90;;;;;;5063320;28;20444;-85
2021/03/22 21:47:16;;;;;;;5.23;2.80;;;6.90;99.90;;;;;;5064540;28;20482;-86
2021/03/22 21:53:54;;;;;;;2.60;2.00;;;6.80;99.90;;;;;;5013171;28;20446;-88
2021/03/22 21:57:21;;;;;;;;;;;;;;;;;;;;;
2021/03/22 23:53:09;;;;;;;4.87;2.73;;;6.60;99.90;;;;;;6012320;23;20452;-88
